Time;durP1;ratioP1;P1;durP2;ratioP2;P2;SDS_P1;SDS_P2;PMS_P1;PMS_P2;Temp;Humidity;BMP_temperature;BMP_pressure;BME280_temperature;BME280_humidity;BME280_pressure;Samples;Min_cycle;Max_cycle;Signal;HPM_P1;HPM_P2
2023/07/24 00:01:10;;;;;;;5.28;3.70;;;21.80;61.50;;;;;;5093255;28;20255;-60
2023/07/24 00:03:38;;;;;;;6.13;3.47;;;21.80;61.50;;;;;;5093226;28;20218;-61
2023/07/24 00:06:05;;;;;;;6.95;3.72;;;21.80;61.50;;;;;;5093219;28;20194;-60
2023/07/24 00:08:32;;;;;;;5.90;3.58;;;21.80;61.50;;;;;;5093217;28;20467;-57
2023/07/24 00:11:00;;;;;;;6.57;3.33;;;21.80;61.50;;;;;;5092777;28;20214;-56
2023/07/24 00:13:27;;;;;;;5.75;3.47;;;21.80;61.50;;;;;;5093128;28;20318;-50
2023/07/24 00:15:55;;;;;;;5.25;3.45;;;21.80;61.50;;;;;;5093047;28;20217;-57
2023/07/24 00:18:24;;;;;;;4.82;3.78;;;21.90;61.60;;;;;;5093178;28;20231;-59
2023/07/24 00:20:51;;;;;;;5.68;3.17;;;21.80;61.50;;;;;;5092650;28;20197;-55
2023/07/24 00:23:18;;;;;;;6.15;3.72;;;21.80;61.50;;;;;;5092855;28;20579;-57
2023/07/24 00:25:46;;;;;;;7.32;3.65;;;21.80;61.50;;;;;;5092869;28;20201;-57
2023/07/24 00:28:13;;;;;;;5.25;3.40;;;21.80;61.50;;;;;;5092726;28;20279;-57
2023/07/24 00:30:40;;;;;;;5.63;3.50;;;21.80;61.40;;;;;;5092616;28;20248;-56
2023/07/24 00:33:08;;;;;;;4.50;3.38;;;21.80;61.40;;;;;;5092877;28;20214;-56
2023/07/24 00:35:36;;;;;;;6.28;3.70;;;21.80;61.50;;;;;;5092756;28;20188;-55
2023/07/24 00:38:04;;;;;;;5.38;3.33;;;21.80;61.40;;;;;;5092522;28;20218;-57
2023/07/24 00:40:31;;;;;;;6.13;3.47;;;21.80;61.50;;;;;;5092622;28;20248;-55
2023/07/24 00:42:58;;;;;;;6.47;3.40;;;21.80;61.40;;;;;;5103479;28;20216;-57
2023/07/24 00:45:26;;;;;;;4.70;3.25;;;21.80;61.50;;;;;;5095883;28;20232;-56
2023/07/24 00:47:53;;;;;;;6.25;3.78;;;21.80;61.40;;;;;;5092379;28;20214;-57
2023/07/24 00:50:21;;;;;;;6.50;3.35;;;21.80;61.50;;;;;;5092271;28;20762;-56
2023/07/24 00:52:50;;;;;;;5.88;3.67;;;21.80;61.40;;;;;;5092705;28;20217;-56
2023/07/24 00:55:17;;;;;;;5.05;3.45;;;21.80;61.40;;;;;;5091710;28;20198;-56
2023/07/24 00:57:45;;;;;;;10.00;3.60;;;21.80;61.40;;;;;;5092657;28;20217;-57
2023/07/24 01:00:13;;;;;;;8.10;3.67;;;21.80;61.40;;;;;;5092462;28;20195;-54
2023/07/24 01:02:41;;;;;;;7.40;3.38;;;21.80;61.40;;;;;;5092489;28;20210;-59
2023/07/24 01:05:09;;;;;;;4.97;2.97;;;21.80;61.40;;;;;;5092425;28;20197;-60
2023/07/24 01:07:37;;;;;;;5.25;3.30;;;21.80;61.40;;;;;;5092480;28;20271;-60
2023/07/24 01:10:07;;;;;;;6.35;3.38;;;21.80;61.40;;;;;;5092304;28;20213;-59
2023/07/24 01:12:40;;;;;;;5.93;3.65;;;21.80;61.40;;;;;;5092406;28;20249;-60
2023/07/24 01:15:14;;;;;;;6.25;3.70;;;21.80;61.40;;;;;;5092318;28;20197;-55
2023/07/24 01:17:48;;;;;;;5.22;3.40;;;21.80;61.40;;;;;;5092487;28;20220;-57
2023/07/24 01:20:18;;;;;;;5.05;3.03;;;21.80;61.40;;;;;;5092008;28;20194;-55
2023/07/24 01:22:59;;;;;;;6.22;3.13;;;21.80;61.40;;;;;;5092350;28;20218;-56
2023/07/24 01:25:35;;;;;;;6.53;3.15;;;21.80;61.40;;;;;;5092287;28;20190;-57
2023/07/24 01:28:08;;;;;;;5.13;3.22;;;21.80;61.40;;;;;;5092337;28;20631;-58
2023/07/24 01:30:35;;;;;;;6.63;3.03;;;21.80;61.40;;;;;;5092130;28;20237;-56
2023/07/24 01:33:03;;;;;;;4.90;3.38;;;21.80;61.40;;;;;;5092275;28;20210;-57
2023/07/24 01:35:32;;;;;;;5.53;3.00;;;21.70;61.30;;;;;;5091816;28;20179;-58
2023/07/24 01:38:03;;;;;;;9.13;3.75;;;21.80;61.40;;;;;;5092258;28;20275;-55
2023/07/24 01:40:31;;;;;;;5.90;2.97;;;21.80;61.40;;;;;;5092133;28;20190;-55
2023/07/24 01:42:59;;;;;;;5.25;3.03;;;21.70;61.30;;;;;;5092177;28;20252;-55
2023/07/24 01:45:28;;;;;;;6.90;3.50;;;21.70;61.30;;;;;;5092053;28;20240;-55
2023/07/24 01:47:55;;;;;;;5.68;2.80;;;21.80;61.40;;;;;;5092206;28;20214;-55
2023/07/24 01:50:23;;;;;;;5.18;2.88;;;21.70;61.30;;;;;;5091526;28;20221;-59
2023/07/24 01:52:50;;;;;;;5.93;2.83;;;21.80;61.30;;;;;;5091771;28;20249;-54
2023/07/24 01:55:17;;;;;;;5.53;3.30;;;21.80;61.40;;;;;;5092050;28;20193;-56
2023/07/24 01:57:45;;;;;;;4.95;2.88;;;21.70;61.30;;;;;;5092062;28;20210;-57
2023/07/24 02:00:13;;;;;;;3.65;2.80;;;21.80;61.40;;;;;;5091929;28;20193;-60
2023/07/24 02:02:42;;;;;;;4.70;3.05;;;21.80;61.40;;;;;;5091646;28;20218;-55
2023/07/24 02:08:09;;;;;;;6.47;2.58;;;21.70;61.20;;;;;;5031208;28;20220;-57
2023/07/24 02:10:39;;;;;;;4.95;2.63;;;21.80;61.30;;;;;;5090558;28;20229;-54
2023/07/24 02:13:07;;;;;;;5.50;2.78;;;21.70;61.20;;;;;;5095521;28;20227;-56
2023/07/24 02:15:34;;;;;;;4.90;2.72;;;21.70;61.20;;;;;;5095407;28;20236;-58
2023/07/24 02:18:03;;;;;;;5.57;2.60;;;21.80;61.30;;;;;;5095485;28;20221;-57
2023/07/24 02:20:30;;;;;;;7.20;2.92;;;21.70;61.20;;;;;;5095369;28;20190;-59
2023/07/24 02:22:58;;;;;;;4.38;2.63;;;21.80;61.30;;;;;;5095012;28;20218;-58
2023/07/24 02:25:25;;;;;;;5.35;2.65;;;21.80;61.30;;;;;;5094876;28;20230;-55
2023/07/24 02:27:53;;;;;;;5.03;2.50;;;21.80;61.30;;;;;;5095253;28;20218;-55
2023/07/24 02:30:20;;;;;;;4.93;2.50;;;21.70;61.10;;;;;;5094811;28;20238;-58
2023/07/24 02:32:47;;;;;;;3.85;2.45;;;21.80;61.30;;;;;;5095144;28;20249;-53
2023/07/24 02:35:18;;;;;;;4.20;2.60;;;21.70;61.10;;;;;;5094656;28;20188;-57
2023/07/24 02:37:45;;;;;;;6.38;2.58;;;21.80;62.00;;;;;;5095003;28;20218;-55
2023/07/24 02:40:13;;;;;;;3.45;2.40;;;21.70;61.10;;;;;;5094822;28;20244;-56
2023/07/24 02:42:40;;;;;;;6.75;2.33;;;21.80;61.30;;;;;;5094857;28;20218;-57
2023/07/24 02:45:10;;;;;;;3.75;2.50;;;21.70;61.00;;;;;;5094746;28;20221;-59
2023/07/24 02:47:38;;;;;;;3.58;2.30;;;21.70;61.10;;;;;;5094491;28;20218;-59
2023/07/24 02:50:06;;;;;;;6.28;2.60;;;21.80;61.10;;;;;;5094253;28;20194;-59
2023/07/24 02:52:35;;;;;;;3.65;2.65;;;21.70;61.00;;;;;;5094948;28;20222;-59
2023/07/24 02:55:02;;;;;;;4.28;2.47;;;21.70;61.00;;;;;;5094622;28;20240;-56
2023/07/24 02:57:29;;;;;;;3.30;2.25;;;21.70;61.00;;;;;;5094682;28;20213;-58
2023/07/24 02:59:56;;;;;;;4.82;2.75;;;21.70;61.00;;;;;;5094149;28;20190;-60
2023/07/24 03:02:24;;;;;;;5.18;2.53;;;21.70;60.90;;;;;;5094395;28;20267;-58
2023/07/24 03:04:51;;;;;;;3.85;2.40;;;21.70;60.90;;;;;;5094133;28;20193;-58
2023/07/24 03:07:18;;;;;;;4.78;2.28;;;21.70;60.90;;;;;;5094479;28;20268;-57
2023/07/24 03:09:47;;;;;;;4.68;2.33;;;21.70;60.90;;;;;;5094336;28;20217;-59
2023/07/24 03:12:14;;;;;;;3.35;2.10;;;21.70;60.90;;;;;;5094152;28;20269;-58
2023/07/24 03:14:42;;;;;;;4.95;2.33;;;21.70;60.90;;;;;;5093926;28;20186;-57
2023/07/24 03:17:09;;;;;;;3.67;2.30;;;21.70;60.90;;;;;;5093870;28;20711;-59
2023/07/24 03:19:36;;;;;;;5.40;2.30;;;21.70;60.90;;;;;;5093668;28;20216;-57
2023/07/24 03:22:04;;;;;;;5.25;2.15;;;21.70;60.90;;;;;;5093997;28;20218;-58
2023/07/24 03:24:31;;;;;;;3.88;2.13;;;21.70;60.80;;;;;;5094040;28;20197;-57
2023/07/24 03:27:00;;;;;;;3.90;2.58;;;21.70;60.90;;;;;;5093962;28;20218;-56
2023/07/24 03:29:27;;;;;;;6.45;2.28;;;21.70;60.90;;;;;;5093703;28;20281;-57
2023/07/24 03:31:55;;;;;;;6.95;2.47;;;21.70;60.80;;;;;;5093450;28;20230;-57
2023/07/24 03:34:22;;;;;;;3.75;2.30;;;21.70;60.80;;;;;;5094058;28;20190;-57
2023/07/24 03:36:49;;;;;;;4.07;2.42;;;21.70;60.80;;;;;;5093753;28;20217;-60
2023/07/24 03:39:17;;;;;;;3.67;2.00;;;21.60;60.70;;;;;;5093764;28;20182;-54
2023/07/24 03:41:44;;;;;;;3.10;2.00;;;21.70;60.90;;;;;;5093641;28;20213;-59
2023/07/24 03:44:13;;;;;;;3.00;1.88;;;21.70;60.80;;;;;;5093416;28;20190;-55
2023/07/24 03:46:40;;;;;;;4.45;2.00;;;21.70;60.80;;;;;;5093509;28;20189;-58
2023/07/24 03:49:07;;;;;;;2.95;1.98;;;21.70;60.80;;;;;;5093221;28;20190;-56
2023/07/24 03:51:35;;;;;;;4.57;2.10;;;21.70;60.80;;;;;;5093279;28;20218;-54
2023/07/24 03:54:02;;;;;;;4.43;2.00;;;21.70;60.80;;;;;;5093220;28;20193;-57
2023/07/24 03:56:29;;;;;;;4.80;2.40;;;21.70;60.80;;;;;;5093050;28;20660;-58
2023/07/24 03:58:57;;;;;;;4.07;2.30;;;21.70;60.80;;;;;;5093069;28;20624;-57
2023/07/24 04:01:26;;;;;;;4.63;1.90;;;21.70;60.80;;;;;;5093384;28;20187;-55
2023/07/24 04:03:53;;;;;;;4.53;2.03;;;21.70;60.80;;;;;;5092969;28;20281;-58
2023/07/24 04:06:21;;;;;;;5.90;1.98;;;21.70;60.80;;;;;;5092978;28;20281;-57
2023/07/24 04:08:48;;;;;;;3.13;2.00;;;21.70;60.70;;;;;;5093374;28;20218;-57
2023/07/24 04:11:15;;;;;;;3.90;1.98;;;21.70;60.70;;;;;;5093051;28;20221;-57
2023/07/24 04:13:43;;;;;;;4.60;1.77;;;21.70;60.70;;;;;;5092944;28;20218;-58
2023/07/24 04:16:10;;;;;;;4.82;1.90;;;21.70;60.70;;;;;;5093041;28;20281;-55
2023/07/24 04:22:01;;;;;;;4.30;1.88;;;21.70;60.70;;;;;;5068314;28;20712;-57
2023/07/24 04:24:28;;;;;;;2.88;1.80;;;21.70;60.60;;;;;;5092870;28;20193;-57
2023/07/24 04:26:55;;;;;;;3.83;2.00;;;21.70;60.70;;;;;;5092835;28;20221;-58
2023/07/24 04:29:25;;;;;;;3.08;1.67;;;21.70;60.70;;;;;;5092353;28;20217;-56
2023/07/24 04:31:53;;;;;;;2.70;1.80;;;21.70;60.70;;;;;;5092002;28;20233;-57
2023/07/24 04:34:21;;;;;;;3.35;1.75;;;21.70;60.70;;;;;;5093046;28;20194;-55
2023/07/24 04:39:30;;;;;;;3.72;1.77;;;21.70;60.70;;;;;;5090670;28;20643;-57
2023/07/24 04:41:57;;;;;;;2.95;1.80;;;21.70;60.70;;;;;;5092318;28;20213;-55
2023/07/24 04:44:24;;;;;;;3.47;1.70;;;21.70;60.60;;;;;;5092692;28;20193;-59
2023/07/24 04:46:52;;;;;;;3.40;2.00;;;21.70;60.70;;;;;;5092598;28;20248;-57
2023/07/24 04:49:21;;;;;;;3.65;1.70;;;21.70;60.60;;;;;;5092267;28;20182;-56
2023/07/24 04:51:48;;;;;;;3.63;1.77;;;21.70;60.60;;;;;;5092406;28;20218;-56
2023/07/24 04:54:15;;;;;;;4.30;1.90;;;21.60;60.60;;;;;;5092552;28;20197;-55
2023/07/24 04:56:43;;;;;;;2.25;1.92;;;21.70;60.60;;;;;;5092170;28;20196;-57
2023/07/24 04:59:10;;;;;;;3.28;1.73;;;21.60;60.60;;;;;;5092147;28;20193;-57
2023/07/24 05:01:37;;;;;;;4.28;1.83;;;21.60;60.50;;;;;;5091874;28;20228;-58
2023/07/24 05:04:04;;;;;;;3.60;1.60;;;21.60;60.50;;;;;;5057063;28;20204;-53
2023/07/24 05:06:35;;;;;;;4.65;1.92;;;21.60;60.60;;;;;;5092168;28;20186;-55
2023/07/24 05:09:02;;;;;;;4.45;2.00;;;21.60;60.50;;;;;;5092306;28;20273;-57
2023/07/24 05:11:30;;;;;;;3.30;1.90;;;21.60;60.60;;;;;;5092273;28;20305;-55
2023/07/24 05:13:57;;;;;;;2.85;1.60;;;21.60;60.60;;;;;;5092308;28;20186;-58
2023/07/24 05:16:24;;;;;;;2.65;1.70;;;21.60;60.50;;;;;;5092314;28;20248;-55
2023/07/24 05:18:52;;;;;;;4.85;1.80;;;21.60;60.60;;;;;;5092543;28;20245;-54
2023/07/24 05:21:19;;;;;;;7.47;2.17;;;21.60;60.60;;;;;;5092285;28;20189;-57
2023/07/24 05:23:48;;;;;;;3.13;2.00;;;21.60;60.50;;;;;;5092143;28;20307;-56
2023/07/24 05:26:15;;;;;;;2.70;1.67;;;21.70;60.60;;;;;;5092249;28;20201;-61
2023/07/24 05:28:43;;;;;;;3.88;1.85;;;21.60;60.50;;;;;;5092071;28;20300;-60
2023/07/24 05:31:10;;;;;;;4.13;1.75;;;21.60;60.50;;;;;;5091851;28;20257;-58
2023/07/24 05:33:37;;;;;;;3.03;1.55;;;21.70;60.60;;;;;;5091957;28;20225;-60
2023/07/24 05:36:05;;;;;;;1.88;1.52;;;21.60;60.50;;;;;;5091829;28;20671;-58
2023/07/24 05:38:32;;;;;;;2.55;1.50;;;21.60;60.50;;;;;;5092266;28;20288;-56
2023/07/24 05:41:03;;;;;;;3.80;1.90;;;21.70;60.60;;;;;;5092313;28;20355;-55
2023/07/24 05:43:32;;;;;;;2.28;1.60;;;21.70;60.70;;;;;;5096070;28;20214;-55
2023/07/24 05:46:02;;;;;;;3.13;2.13;;;21.70;60.70;;;;;;5095561;28;20644;-58
2023/07/24 05:48:30;;;;;;;2.63;1.90;;;21.70;60.90;;;;;;5095980;28;20301;-57
2023/07/24 05:50:57;;;;;;;2.88;1.88;;;21.70;61.90;;;;;;5095694;28;20182;-54
2023/07/24 05:53:25;;;;;;;2.63;1.70;;;21.80;62.10;;;;;;5095699;28;20220;-53
2023/07/24 05:55:59;;;;;;;4.28;1.73;;;21.80;62.60;;;;;;5095246;28;20190;-54
2023/07/24 05:58:28;;;;;;;3.45;1.80;;;21.70;62.60;;;;;;5095771;28;20224;-55
2023/07/24 06:00:56;;;;;;;5.07;1.80;;;21.80;62.20;;;;;;5095636;28;20193;-55
2023/07/24 06:03:23;;;;;;;3.42;1.65;;;21.70;62.10;;;;;;5095723;28;20214;-55
2023/07/24 06:05:54;;;;;;;3.58;1.77;;;21.80;62.20;;;;;;5095490;28;20186;-52
2023/07/24 06:08:21;;;;;;;2.45;1.40;;;21.80;62.20;;;;;;5095601;28;20214;-54
2023/07/24 06:10:49;;;;;;;2.78;1.67;;;21.70;62.10;;;;;;5095422;28;20186;-55
2023/07/24 06:13:16;;;;;;;3.15;1.65;;;21.70;62.10;;;;;;5095362;28;20234;-56
2023/07/24 06:15:45;;;;;;;3.97;1.83;;;21.70;62.10;;;;;;5095414;28;20222;-55
2023/07/24 06:18:12;;;;;;;4.90;1.75;;;21.70;62.00;;;;;;5095105;28;20253;-56
2023/07/24 06:20:40;;;;;;;2.50;1.70;;;21.70;62.10;;;;;;5095261;28;20186;-53
2023/07/24 06:23:07;;;;;;;6.95;1.60;;;21.70;62.10;;;;;;5094929;28;20221;-54
2023/07/24 06:25:35;;;;;;;3.35;1.90;;;21.70;62.00;;;;;;5095244;28;20194;-54
2023/07/24 06:28:02;;;;;;;2.38;1.63;;;21.60;61.90;;;;;;5094909;28;20222;-52
2023/07/24 06:30:29;;;;;;;3.60;1.80;;;21.70;62.00;;;;;;5094670;28;20259;-55
2023/07/24 06:32:58;;;;;;;3.33;1.83;;;21.70;62.00;;;;;;5095021;28;20722;-53
2023/07/24 06:38:48;;;;;;;3.00;1.80;;;21.70;62.00;;;;;;5094926;28;20248;-57
2023/07/24 06:41:16;;;;;;;2.92;1.73;;;21.60;61.90;;;;;;5095149;28;20230;-54
2023/07/24 06:43:43;;;;;;;3.22;1.85;;;21.60;61.90;;;;;;5095074;28;20217;-54
2023/07/24 06:46:10;;;;;;;3.08;1.73;;;21.60;61.90;;;;;;5095152;28;20323;-54
2023/07/24 06:48:39;;;;;;;4.75;1.60;;;21.60;61.90;;;;;;5094639;28;20218;-55
2023/07/24 06:51:06;;;;;;;3.47;1.70;;;21.60;61.80;;;;;;5094693;28;20243;-52
2023/07/24 06:53:34;;;;;;;3.92;1.77;;;21.60;61.80;;;;;;5093673;28;20234;-53
2023/07/24 06:56:02;;;;;;;2.92;1.60;;;21.60;61.80;;;;;;5094296;28;20182;-55
2023/07/24 06:58:29;;;;;;;2.63;1.50;;;21.60;61.70;;;;;;5094720;28;20214;-55
2023/07/24 07:00:56;;;;;;;3.15;1.83;;;21.70;61.80;;;;;;5094529;28;20186;-54
2023/07/24 07:03:24;;;;;;;3.05;1.73;;;21.60;61.70;;;;;;5094700;28;20217;-53
2023/07/24 07:05:52;;;;;;;2.00;1.70;;;21.60;61.70;;;;;;5094466;28;20243;-53
2023/07/24 07:08:20;;;;;;;2.35;1.70;;;21.60;61.70;;;;;;5094157;28;20228;-57
2023/07/24 07:10:47;;;;;;;3.67;1.92;;;21.60;61.70;;;;;;5093892;28;20630;-57
2023/07/24 07:13:16;;;;;;;3.05;2.03;;;21.60;61.60;;;;;;5090456;28;20275;-56
2023/07/24 07:15:43;;;;;;;5.07;1.73;;;21.70;61.60;;;;;;5112912;28;20193;-54
2023/07/24 07:18:11;;;;;;;3.78;1.75;;;21.80;61.70;;;;;;5113538;28;20249;-54
2023/07/24 07:20:47;;;;;;;2.88;1.70;;;21.80;61.60;;;;;;5112430;28;20270;-57
2023/07/24 07:23:16;;;;;;;4.10;1.80;;;21.80;61.40;;;;;;5114162;28;20277;-55
2023/07/24 07:25:45;;;;;;;6.22;1.92;;;21.90;61.40;;;;;;5113877;28;20193;-57
2023/07/24 07:28:12;;;;;;;9.77;1.95;;;21.90;62.10;;;;;;5108039;28;20209;-54
2023/07/24 07:30:40;;;;;;;7.90;2.05;;;21.90;61.10;;;;;;5102132;28;20240;-57
2023/07/24 07:33:11;;;;;;;2.35;1.55;;;22.00;61.20;;;;;;5113844;28;20279;-58
2023/07/24 07:38:22;;;;;;;4.03;2.00;;;22.00;61.00;;;;;;5066893;28;20708;-53
2023/07/24 07:40:49;;;;;;;3.78;1.88;;;22.00;60.90;;;;;;5095302;27;20187;-57
2023/07/24 07:43:17;;;;;;;3.58;1.95;;;22.10;60.90;;;;;;5110843;28;20219;-54
2023/07/24 07:45:44;;;;;;;4.13;1.80;;;22.10;60.80;;;;;;5114239;27;20765;-56
2023/07/24 07:48:12;;;;;;;3.33;1.88;;;22.20;60.90;;;;;;5134497;27;20212;-57
2023/07/24 07:50:39;;;;;;;4.63;2.42;;;22.20;60.90;;;;;;5133695;27;20239;-55
2023/07/24 07:53:06;;;;;;;2.85;1.60;;;22.20;60.80;;;;;;5133974;27;20236;-55
2023/07/24 07:55:35;;;;;;;5.88;2.20;;;22.30;60.80;;;;;;5103992;27;20201;-56
2023/07/24 07:58:02;;;;;;;6.45;2.03;;;22.30;60.80;;;;;;5109800;28;20290;-56
2023/07/24 08:00:30;;;;;;;4.35;2.22;;;22.30;60.70;;;;;;5112401;28;20746;-56
2023/07/24 08:02:57;;;;;;;3.17;1.80;;;22.30;60.70;;;;;;5108642;28;20748;-57
2023/07/24 08:05:24;;;;;;;7.18;1.77;;;22.40;60.60;;;;;;5110226;28;20189;-53
2023/07/24 08:07:51;;;;;;;8.93;1.92;;;22.40;60.60;;;;;;5111845;27;20213;-59
2023/07/24 08:13:22;;;;;;;5.95;1.90;;;22.50;60.50;;;;;;5063326;28;20229;-54
2023/07/24 08:15:51;;;;;;;3.97;1.98;;;22.50;60.40;;;;;;5098903;28;20201;-55
2023/07/24 08:18:18;;;;;;;4.97;2.15;;;22.50;60.40;;;;;;5099170;28;20227;-56
2023/07/24 08:20:45;;;;;;;3.33;1.83;;;22.60;60.40;;;;;;5095064;28;20627;-55
2023/07/24 08:23:12;;;;;;;4.45;1.88;;;22.60;60.30;;;;;;5111521;27;20213;-56
2023/07/24 08:25:40;;;;;;;2.58;1.77;;;22.60;60.30;;;;;;5104397;28;20198;-54
2023/07/24 08:28:07;;;;;;;2.97;1.75;;;22.60;60.20;;;;;;5104787;28;20669;-53
2023/07/24 08:30:35;;;;;;;4.25;1.77;;;22.60;60.10;;;;;;5111517;28;20229;-52
2023/07/24 08:33:02;;;;;;;3.58;1.73;;;22.70;60.20;;;;;;5100182;28;20249;-52
2023/07/24 08:35:30;;;;;;;5.70;1.60;;;22.70;60.10;;;;;;5109725;28;20720;-53
2023/07/24 08:37:57;;;;;;;2.78;1.70;;;22.70;60.00;;;;;;5117147;27;20298;-53
2023/07/24 08:40:24;;;;;;;5.93;1.90;;;22.70;59.90;;;;;;5131676;27;20234;-53
2023/07/24 08:42:54;;;;;;;3.25;1.60;;;22.70;59.90;;;;;;5130627;27;20288;-54
2023/07/24 08:45:21;;;;;;;2.47;1.63;;;22.70;59.80;;;;;;5128667;27;20194;-63
2023/07/24 08:47:49;;;;;;;2.97;1.88;;;22.70;59.80;;;;;;5110401;27;20375;-56
2023/07/24 08:50:18;;;;;;;2.78;1.98;;;22.80;59.80;;;;;;5107809;28;20229;-54
2023/07/24 08:52:46;;;;;;;3.50;1.63;;;22.80;59.70;;;;;;5093768;28;20229;-54
2023/07/24 08:55:14;;;;;;;4.15;2.22;;;22.80;59.70;;;;;;5104255;28;20194;-53
2023/07/24 08:57:41;;;;;;;7.88;2.13;;;22.80;60.40;;;;;;5091848;28;20218;-55
2023/07/24 09:00:10;;;;;;;3.97;2.30;;;22.80;59.60;;;;;;5112055;28;20217;-54
2023/07/24 09:02:37;;;;;;;2.15;1.75;;;22.80;59.60;;;;;;5090827;28;20202;-54
2023/07/24 09:05:06;;;;;;;2.67;1.60;;;22.80;59.60;;;;;;5108463;28;20228;-54
2023/07/24 09:07:34;;;;;;;2.63;1.80;;;22.80;59.50;;;;;;5111414;28;20689;-53
2023/07/24 09:10:02;;;;;;;6.50;1.70;;;22.80;59.50;;;;;;5090443;28;20194;-54
2023/07/24 09:12:29;;;;;;;5.13;2.00;;;22.90;59.50;;;;;;5089933;28;20218;-54
2023/07/24 09:15:04;;;;;;;5.68;1.85;;;22.90;59.50;;;;;;5092585;28;20198;-55
2023/07/24 09:17:32;;;;;;;3.28;1.88;;;22.90;59.50;;;;;;5094086;28;20931;-53
2023/07/24 09:20:01;;;;;;;2.75;1.77;;;22.90;59.40;;;;;;5115799;27;20193;-55
2023/07/24 09:22:28;;;;;;;3.38;1.60;;;22.90;59.40;;;;;;5114512;28;20193;-55
2023/07/24 09:24:59;;;;;;;3.25;1.80;;;23.00;59.40;;;;;;5114456;27;20215;-56
2023/07/24 09:27:56;;;;;;;2.95;1.95;;;23.00;59.40;;;;;;5113884;28;20655;-57
2023/07/24 09:30:30;;;;;;;3.85;1.80;;;23.00;59.30;;;;;;5032325;28;20235;-57
2023/07/24 09:32:59;;;;;;;3.97;2.03;;;23.00;59.30;;;;;;5032515;28;20246;-53
2023/07/24 09:35:28;;;;;;;6.22;1.80;;;23.00;59.20;;;;;;5030619;28;20204;-55
2023/07/24 09:38:04;;;;;;;3.30;1.98;;;23.00;59.20;;;;;;5032703;28;20213;-55
2023/07/24 09:40:40;;;;;;;3.63;1.77;;;23.00;59.20;;;;;;5030195;28;20196;-55
2023/07/24 09:43:18;;;;;;;4.03;1.80;;;23.00;59.10;;;;;;5021373;28;20656;-56
2023/07/24 09:45:45;;;;;;;8.35;2.08;;;23.00;59.10;;;;;;5023011;28;20724;-57
2023/07/24 09:48:15;;;;;;;3.35;1.73;;;23.10;59.20;;;;;;5034428;28;20211;-55
2023/07/24 09:50:46;;;;;;;3.75;1.90;;;23.00;59.10;;;;;;5031813;28;20192;-49
2023/07/24 09:53:27;;;;;;;3.47;1.73;;;23.10;59.10;;;;;;5031137;28;20681;-56
2023/07/24 09:56:00;;;;;;;3.95;2.08;;;23.10;59.10;;;;;;5031592;28;20192;-53
2023/07/24 09:58:28;;;;;;;6.47;2.22;;;23.10;59.00;;;;;;5029807;28;20223;-53
2023/07/24 10:00:58;;;;;;;4.10;1.70;;;23.10;59.00;;;;;;5031466;28;20189;-54
2023/07/24 10:03:27;;;;;;;12.25;7.60;;;23.10;58.90;;;;;;5034581;28;20268;-55
2023/07/24 10:05:55;;;;;;;30.77;20.80;;;23.10;58.60;;;;;;5114716;28;20276;-59
2023/07/24 10:08:23;;;;;;;16.48;13.43;;;23.10;58.60;;;;;;5102451;28;20647;-59
2023/07/24 10:10:53;;;;;;;21.75;16.33;;;23.10;58.50;;;;;;5094090;28;20240;-58
2023/07/24 10:13:25;;;;;;;33.03;28.02;;;23.10;58.50;;;;;;5092917;28;20316;-56
2023/07/24 10:15:53;;;;;;;24.35;21.67;;;23.10;58.50;;;;;;5094898;28;20186;-57
2023/07/24 10:18:57;;;;;;;22.58;19.52;;;23.10;58.50;;;;;;5107651;28;20260;-57
2023/07/24 10:21:29;;;;;;;20.08;16.05;;;23.10;58.50;;;;;;5110744;28;20207;-57
2023/07/24 10:24:10;;;;;;;22.15;15.88;;;23.10;58.60;;;;;;5101382;28;20228;-56
2023/07/24 10:30:00;;;;;;;16.13;13.13;;;23.10;58.60;;;;;;5109897;27;20713;-59
2023/07/24 10:32:28;;;;;;;15.50;12.95;;;23.10;58.50;;;;;;5110615;28;20201;-56
2023/07/24 10:35:02;;;;;;;12.85;11.18;;;23.10;58.50;;;;;;5109927;27;20217;-55
2023/07/24 10:37:35;;;;;;;12.07;9.52;;;23.10;58.50;;;;;;5110589;28;20188;-56
2023/07/24 10:40:04;;;;;;;12.27;9.00;;;23.10;58.60;;;;;;5110978;27;20217;-57
2023/07/24 10:42:33;;;;;;;10.80;8.88;;;23.10;58.50;;;;;;5109567;28;20198;-53
2023/07/24 10:45:07;;;;;;;9.55;8.27;;;23.10;58.50;;;;;;5110748;28;20233;-55
2023/07/24 10:47:35;;;;;;;9.93;8.18;;;23.10;58.50;;;;;;5110871;28;20193;-57
2023/07/24 10:50:03;;;;;;;9.85;7.90;;;23.10;58.50;;;;;;5128764;27;20216;-54
2023/07/24 10:52:32;;;;;;;10.23;7.78;;;23.10;58.50;;;;;;5130690;27;20196;-54
2023/07/24 10:55:03;;;;;;;8.65;6.82;;;23.10;58.50;;;;;;5091702;28;20222;-56
2023/07/24 10:57:31;;;;;;;9.13;7.20;;;23.10;58.30;;;;;;5088805;28;20205;-56
2023/07/24 11:00:00;;;;;;;8.50;6.00;;;23.10;58.30;;;;;;5107115;28;20649;-53
2023/07/24 11:02:53;;;;;;;7.63;6.20;;;23.10;58.30;;;;;;5110415;28;20194;-58
2023/07/24 11:05:25;;;;;;;8.10;5.45;;;23.10;58.20;;;;;;5091299;27;20212;-55
2023/07/24 11:07:52;;;;;;;7.32;5.43;;;23.10;58.20;;;;;;5110054;28;20185;-56
2023/07/24 11:10:23;;;;;;;10.75;6.13;;;23.10;58.20;;;;;;5110568;28;20189;-55
2023/07/24 11:12:59;;;;;;;7.03;5.22;;;23.10;58.20;;;;;;5108975;28;20200;-54
2023/07/24 11:15:30;;;;;;;7.95;4.95;;;23.10;58.20;;;;;;5108966;27;20192;-56
2023/07/24 11:17:57;;;;;;;7.05;4.70;;;23.10;58.20;;;;;;5094875;28;20205;-56
2023/07/24 11:20:25;;;;;;;5.38;4.38;;;23.10;58.20;;;;;;5129625;27;20275;-55
2023/07/24 11:22:52;;;;;;;5.15;4.20;;;23.10;58.20;;;;;;5130599;27;20189;-56
2023/07/24 11:25:21;;;;;;;6.20;4.57;;;23.10;58.20;;;;;;5130527;27;20220;-54
2023/07/24 11:27:48;;;;;;;6.65;4.38;;;23.00;58.10;;;;;;5129617;27;20196;-56
2023/07/24 11:30:21;;;;;;;5.20;4.00;;;23.00;58.20;;;;;;5130182;27;20231;-54
2023/07/24 11:32:50;;;;;;;6.60;3.80;;;23.00;58.20;;;;;;5130396;27;20188;-53
2023/07/24 11:35:18;;;;;;;5.90;3.72;;;23.10;58.20;;;;;;5130150;27;20303;-56
2023/07/24 11:37:45;;;;;;;6.60;3.60;;;23.10;58.30;;;;;;5130139;27;20271;-56
2023/07/24 11:40:15;;;;;;;6.55;3.90;;;23.10;58.20;;;;;;5128938;27;20223;-56
2023/07/24 11:42:55;;;;;;;4.28;3.38;;;23.10;58.20;;;;;;5126874;27;20184;-55
2023/07/24 11:48:11;;;;;;;4.47;3.30;;;23.00;58.10;;;;;;5124505;27;20196;-58
2023/07/24 11:51:13;;;;;;;6.82;3.53;;;23.00;58.10;;;;;;5106791;28;20197;-58
2023/07/24 11:53:41;;;;;;;5.63;3.33;;;23.00;58.10;;;;;;5107843;28;20227;-54
2023/07/24 11:56:16;;;;;;;4.75;3.30;;;23.00;58.20;;;;;;5108199;28;20193;-56
2023/07/24 11:58:44;;;;;;;9.32;3.72;;;23.00;58.10;;;;;;5096181;28;20219;-55
2023/07/24 12:01:14;;;;;;;14.05;3.28;;;23.10;58.20;;;;;;5090710;27;20190;-57
2023/07/24 12:10:02;;;;;;;6.90;3.03;;;23.10;58.90;;;;;;5082880;27;20744;-71
2023/07/24 12:12:43;;;;;;;5.03;2.80;;;23.10;58.20;;;;;;5094018;27;20254;-66
2023/07/24 12:15:28;;;;;;;3.67;2.67;;;23.10;58.20;;;;;;5091509;28;20397;-70
2023/07/24 12:17:59;;;;;;;6.15;2.95;;;23.10;58.20;;;;;;5095822;27;20300;-67
2023/07/24 12:20:33;;;;;;;4.97;3.10;;;23.10;58.20;;;;;;5089286;27;20224;-57
2023/07/24 12:23:12;;;;;;;3.95;2.60;;;23.10;58.20;;;;;;5097707;27;20192;-66
2023/07/24 12:25:41;;;;;;;9.30;2.90;;;23.20;58.30;;;;;;5103957;27;20280;-68
2023/07/24 12:28:12;;;;;;;4.30;2.50;;;23.20;58.30;;;;;;5051664;28;20212;-63
2023/07/24 12:30:43;;;;;;;5.30;2.80;;;23.30;58.30;;;;;;5100116;28;20244;-60
2023/07/24 12:33:13;;;;;;;3.72;2.55;;;23.30;58.30;;;;;;5097372;28;20292;-60
2023/07/24 12:35:43;;;;;;;4.95;2.88;;;23.40;58.40;;;;;;5089989;27;20204;-59
2023/07/24 12:38:11;;;;;;;3.92;2.75;;;23.40;58.40;;;;;;5098751;27;20212;-64
2023/07/24 12:40:38;;;;;;;4.05;2.65;;;23.40;58.40;;;;;;5098058;27;20240;-59
2023/07/24 12:43:05;;;;;;;4.72;2.67;;;23.40;58.40;;;;;;5103875;27;20233;-63
2023/07/24 12:45:33;;;;;;;3.53;2.55;;;23.40;58.20;;;;;;5105035;27;20220;-50
2023/07/24 12:54:08;;;;;;;3.72;2.80;;;23.60;58.10;;;;;;5080455;27;20242;-61
2023/07/24 12:56:39;;;;;;;5.25;2.70;;;23.60;58.10;;;;;;5104385;28;20662;-55
2023/07/24 13:02:16;;;;;;;8.32;2.78;;;23.60;58.10;;;;;;5066046;28;20743;-64
2023/07/24 13:05:29;;;;;;;7.30;2.72;;;23.60;58.10;;;;;;5076404;28;20226;-64
2023/07/24 13:15:50;;;;;;;4.82;2.85;;;23.70;57.90;;;;;;5077569;28;21043;-54
2023/07/24 13:18:21;;;;;;;4.80;2.92;;;23.60;57.90;;;;;;5020090;28;20202;-62
2023/07/24 13:21:09;;;;;;;6.60;2.97;;;23.70;58.00;;;;;;5098769;28;20690;-60
2023/07/24 13:26:48;;;;;;;17.63;13.50;;;23.80;58.00;;;;;;5014348;28;20223;-60
2023/07/24 13:29:47;;;;;;;10.15;3.42;;;23.80;58.00;;;;;;5012115;28;20700;-64
2023/07/24 13:38:38;;;;;;;;;;;;;;;;;;;;;
2023/07/24 13:41:12;;;;;;;8.00;4.30;;;24.00;57.90;;;;;;4997362;28;20639;-66
2023/07/24 13:44:14;;;;;;;6.28;5.38;;;24.00;57.80;;;;;;5010076;28;20292;-65
2023/07/24 13:46:41;;;;;;;7.90;4.15;;;24.00;57.70;;;;;;5010132;28;20208;-63
2023/07/24 13:49:11;;;;;;;6.05;3.85;;;24.00;57.50;;;;;;5016694;28;20802;-61
2023/07/24 13:51:38;;;;;;;6.40;4.10;;;24.10;57.60;;;;;;5018279;28;20313;-59
2023/07/24 13:54:07;;;;;;;6.50;3.78;;;24.10;57.50;;;;;;5017375;28;21055;-64
2023/07/24 13:56:35;;;;;;;6.10;3.95;;;24.10;57.40;;;;;;5031874;28;20208;-64